createdAt,value
2018-07-04T00:00:51.714Z,15.34
2018-07-04T00:03:30.177Z,15.32
2018-07-04T00:06:08.700Z,15.30
2018-07-04T00:08:47.181Z,15.29
2018-07-04T00:11:25.757Z,15.26
2018-07-04T00:14:04.112Z,15.22
2018-07-04T00:16:42.701Z,15.21
2018-07-04T00:19:21.247Z,15.19
2018-07-04T00:21:59.833Z,15.18
2018-07-04T00:24:38.474Z,15.17
2018-07-04T00:27:17.105Z,15.16
2018-07-04T00:29:55.601Z,15.15
2018-07-04T00:32:34.321Z,15.13
2018-07-04T00:35:12.802Z,15.11
2018-07-04T00:37:51.304Z,15.10
2018-07-04T00:40:29.738Z,15.07
2018-07-04T00:43:08.329Z,15.07
2018-07-04T00:45:46.785Z,15.04
2018-07-04T00:48:25.156Z,14.99
2018-07-04T00:51:03.677Z,14.98
2018-07-04T00:53:42.353Z,14.95
2018-07-04T00:56:20.885Z,14.93
2018-07-04T00:58:59.436Z,14.89
2018-07-04T01:01:38.026Z,14.86
2018-07-04T01:04:16.665Z,14.85
2018-07-04T01:06:55.266Z,14.84
2018-07-04T01:09:33.779Z,14.83
2018-07-04T01:12:12.217Z,14.82
2018-07-04T01:14:50.893Z,14.79
2018-07-04T01:17:29.381Z,14.77
2018-07-04T01:20:07.821Z,14.76
2018-07-04T01:22:46.377Z,14.73
2018-07-04T01:25:24.805Z,14.74
2018-07-04T01:28:03.349Z,14.70
2018-07-04T01:30:42.001Z,14.69
2018-07-04T01:33:20.701Z,14.67
2018-07-04T01:35:59.294Z,14.63
2018-07-04T01:38:37.770Z,14.59
2018-07-04T01:41:16.313Z,14.60
2018-07-04T01:43:54.970Z,14.58
2018-07-04T01:46:33.723Z,14.58
2018-07-04T01:49:12.323Z,14.59
2018-07-04T01:51:50.737Z,14.57
2018-07-04T01:54:29.132Z,14.59
2018-07-04T01:57:08.001Z,14.58
2018-07-04T01:59:46.593Z,14.56
2018-07-04T02:02:25.145Z,14.56
2018-07-04T02:05:03.548Z,14.54
2018-07-04T02:07:42.152Z,14.53
2018-07-04T02:10:20.753Z,14.52
2018-07-04T02:12:59.313Z,14.50
2018-07-04T02:15:37.964Z,14.49
2018-07-04T02:18:16.538Z,14.48
2018-07-04T02:20:55.029Z,14.44
2018-07-04T02:23:33.542Z,14.42
2018-07-04T02:26:12.397Z,14.40
2018-07-04T02:28:50.829Z,14.35
2018-07-04T02:31:29.258Z,14.31
2018-07-04T02:34:07.870Z,14.28
2018-07-04T02:36:46.566Z,14.29
2018-07-04T02:39:25.013Z,14.27
2018-07-04T02:42:03.520Z,14.25
2018-07-04T02:44:41.865Z,14.24
2018-07-04T02:47:26.869Z,14.22
2018-07-04T02:50:05.577Z,14.20
2018-07-04T02:52:44.333Z,14.19
2018-07-04T02:55:23.129Z,14.18
2018-07-04T02:58:01.630Z,14.17
2018-07-04T03:00:40.158Z,14.10
2018-07-04T03:03:18.690Z,14.09
2018-07-04T03:05:57.261Z,14.10
2018-07-04T03:08:36.139Z,14.13
2018-07-04T03:11:14.673Z,14.15
2018-07-04T03:13:53.265Z,14.14
2018-07-04T03:16:31.885Z,14.11
2018-07-04T03:19:10.499Z,14.07
2018-07-04T03:21:48.965Z,14.03
2018-07-04T03:24:27.619Z,14.02
2018-07-04T03:27:06.263Z,14.03
2018-07-04T03:29:44.844Z,14.04
2018-07-04T03:32:23.509Z,14.06
2018-07-04T03:35:02.110Z,14.08
2018-07-04T03:37:40.650Z,14.09
2018-07-04T03:40:19.221Z,14.13
2018-07-04T03:42:57.920Z,14.09
2018-07-04T03:45:36.510Z,14.13
2018-07-04T03:48:14.989Z,14.16
2018-07-04T03:50:53.592Z,14.17
2018-07-04T03:53:32.059Z,14.20
2018-07-04T03:56:10.558Z,14.23
2018-07-04T03:58:49.058Z,14.24
2018-07-04T04:01:27.889Z,14.26
2018-07-04T04:04:06.420Z,14.29
2018-07-04T04:06:45.079Z,14.28
2018-07-04T04:09:23.765Z,14.31
2018-07-04T04:12:02.661Z,14.35
2018-07-04T04:14:41.169Z,14.39
2018-07-04T04:17:19.904Z,14.42
2018-07-04T04:19:58.457Z,14.43
2018-07-04T04:22:37.170Z,14.47
2018-07-04T04:25:15.566Z,14.52
2018-07-04T04:27:54.101Z,14.56
2018-07-04T04:30:32.983Z,14.61
2018-07-04T04:33:11.665Z,14.64
2018-07-04T04:35:50.319Z,14.69
2018-07-04T04:38:28.920Z,14.74
2018-07-04T04:41:07.554Z,14.81
2018-07-04T04:43:46.355Z,14.87
2018-07-04T04:46:24.864Z,14.95
2018-07-04T04:49:03.611Z,15.02
2018-07-04T04:51:42.173Z,15.08
2018-07-04T04:54:21.093Z,15.03
2018-07-04T04:56:59.706Z,15.05
2018-07-04T04:59:38.371Z,15.03
2018-07-04T05:02:16.973Z,15.00
2018-07-04T05:04:55.604Z,14.98
2018-07-04T05:07:34.121Z,14.95
2018-07-04T05:10:12.673Z,14.95
2018-07-04T05:12:51.140Z,15.03
2018-07-04T05:15:29.654Z,15.07
2018-07-04T05:18:08.121Z,15.10
2018-07-04T05:20:46.801Z,15.12
2018-07-04T05:23:25.396Z,15.18
2018-07-04T05:26:04.064Z,15.27
2018-07-04T05:28:42.649Z,15.34
2018-07-04T05:31:21.234Z,15.42
2018-07-04T05:33:59.706Z,15.48
2018-07-04T05:36:38.378Z,15.53
2018-07-04T05:39:16.874Z,15.58
2018-07-04T05:41:55.581Z,15.63
2018-07-04T05:44:34.193Z,15.70
2018-07-04T05:47:12.674Z,15.76
2018-07-04T05:49:51.181Z,15.83
2018-07-04T05:52:29.703Z,15.83
2018-07-04T05:55:08.196Z,15.75
2018-07-04T05:57:46.841Z,15.79
2018-07-04T06:00:25.442Z,15.86
2018-07-04T06:03:03.928Z,15.92
2018-07-04T06:05:42.613Z,16.02
2018-07-04T06:08:21.111Z,16.13
2018-07-04T06:10:59.680Z,16.20
2018-07-04T06:13:38.281Z,16.31
2018-07-04T06:16:16.832Z,16.42
2018-07-04T06:18:55.266Z,16.49
2018-07-04T06:21:34.189Z,16.46
2018-07-04T06:24:12.673Z,16.48
2018-07-04T06:26:51.193Z,16.52
2018-07-04T06:29:29.609Z,16.60
2018-07-04T06:32:08.273Z,16.63
2018-07-04T06:34:46.693Z,16.73
2018-07-04T06:37:25.158Z,16.85
2018-07-04T06:39:51.216Z,16.92
2018-07-04T06:42:17.317Z,16.97
2018-07-04T06:44:43.398Z,17.00
2018-07-04T06:47:09.549Z,17.12
2018-07-04T06:49:35.635Z,17.20
2018-07-04T06:52:01.709Z,17.30
2018-07-04T06:54:27.860Z,17.36
2018-07-04T06:56:53.994Z,17.47
2018-07-04T06:59:20.057Z,17.51
2018-07-04T07:01:46.148Z,17.64
2018-07-04T07:04:24.801Z,17.69
2018-07-04T07:07:03.446Z,17.65
2018-07-04T07:09:42.094Z,17.68
2018-07-04T07:12:20.641Z,17.76
2018-07-04T07:14:59.185Z,17.82
2018-07-04T07:17:37.731Z,17.90
2018-07-04T07:20:16.279Z,17.96
2018-07-04T07:22:54.980Z,18.08
2018-07-04T07:25:33.557Z,18.10
2018-07-04T07:28:12.085Z,18.20
2018-07-04T07:30:50.614Z,18.16
2018-07-04T07:33:29.336Z,18.27
2018-07-04T07:36:07.978Z,18.33
2018-07-04T07:38:46.585Z,18.41
2018-07-04T07:41:24.977Z,18.52
2018-07-04T07:44:03.528Z,18.64
2018-07-04T07:46:42.041Z,18.75
2018-07-04T07:49:20.517Z,18.84
2018-07-04T07:51:59.009Z,18.93
2018-07-04T07:54:37.449Z,19.02
2018-07-04T07:57:16.194Z,19.08
2018-07-04T07:59:54.705Z,19.17
2018-07-04T08:02:33.224Z,19.25
2018-07-04T08:05:11.725Z,19.22
2018-07-04T08:07:50.240Z,19.24
2018-07-04T08:10:28.842Z,19.29
2018-07-04T08:13:07.734Z,19.39
2018-07-04T08:15:46.281Z,19.36
2018-07-04T08:18:24.769Z,19.32
2018-07-04T08:21:03.327Z,19.38
2018-07-04T08:23:41.994Z,19.47
2018-07-04T08:26:20.481Z,19.59
2018-07-04T08:28:59.062Z,19.69
2018-07-04T08:31:37.505Z,19.65
2018-07-04T08:34:15.984Z,19.72
2018-07-04T08:36:54.421Z,19.82
2018-07-04T08:39:32.958Z,19.83
2018-07-04T08:42:11.465Z,19.90
2018-07-04T08:44:49.930Z,19.94
2018-07-04T08:47:28.366Z,19.99
2018-07-04T08:50:06.893Z,20.02
2018-07-04T08:52:45.544Z,20.07
2018-07-04T08:55:23.993Z,20.08
2018-07-04T08:58:02.524Z,20.13
2018-07-04T09:00:41.175Z,20.29
2018-07-04T09:03:19.590Z,20.40
2018-07-04T09:05:58.157Z,20.47
2018-07-04T09:08:36.765Z,20.44
2018-07-04T09:11:15.425Z,20.50
2018-07-04T09:13:53.857Z,20.61
2018-07-04T09:16:32.505Z,20.66
2018-07-04T09:19:11.225Z,20.59
2018-07-04T09:21:49.795Z,20.69
2018-07-04T09:24:28.476Z,20.72
2018-07-04T09:27:06.953Z,20.79
2018-07-04T09:29:45.460Z,20.94
2018-07-04T09:32:23.914Z,21.01
2018-07-04T09:35:02.701Z,21.12
2018-07-04T09:37:41.196Z,21.15
2018-07-04T09:40:19.969Z,21.22
2018-07-04T09:42:58.357Z,21.33
2018-07-04T09:45:36.946Z,21.43
2018-07-04T09:48:15.465Z,21.54
2018-07-04T09:50:54.078Z,21.68
2018-07-04T09:53:32.695Z,21.78
2018-07-04T09:56:11.222Z,21.82
2018-07-04T09:58:49.808Z,21.93
2018-07-04T10:01:28.222Z,21.94
2018-07-04T10:04:06.769Z,21.90
2018-07-04T10:06:45.237Z,21.86
2018-07-04T10:09:24.253Z,21.95
2018-07-04T10:12:02.740Z,22.07
2018-07-04T10:14:41.457Z,22.18
2018-07-04T10:17:20.173Z,22.30
2018-07-04T10:19:59.071Z,22.35
2018-07-04T10:22:37.677Z,22.50
2018-07-04T10:25:16.261Z,22.39
2018-07-04T10:27:54.782Z,22.49
2018-07-04T10:30:33.313Z,22.61
2018-07-04T10:33:11.944Z,22.69
2018-07-04T10:35:50.553Z,22.80
2018-07-04T10:38:29.106Z,22.83
2018-07-04T10:41:07.671Z,22.76
2018-07-04T10:43:46.362Z,22.83
2018-07-04T10:46:25.013Z,22.94
2018-07-04T10:49:03.706Z,22.99
2018-07-04T10:51:42.349Z,23.04
2018-07-04T10:54:20.942Z,23.12
2018-07-04T10:56:59.509Z,23.24
2018-07-04T10:59:37.953Z,23.25
2018-07-04T11:02:16.525Z,23.34
2018-07-04T11:04:54.989Z,23.49
2018-07-04T11:07:33.593Z,23.56
2018-07-04T11:10:12.251Z,23.78
2018-07-04T11:12:50.771Z,23.83
2018-07-04T11:15:29.485Z,23.85
2018-07-04T11:18:07.928Z,23.96
2018-07-04T11:20:46.510Z,24.05
2018-07-04T11:23:25.061Z,24.04
2018-07-04T11:26:03.497Z,24.21
2018-07-04T11:28:42.073Z,24.26
2018-07-04T11:31:20.703Z,24.28
2018-07-04T11:33:59.189Z,24.32
2018-07-04T11:36:37.713Z,24.34
2018-07-04T11:39:16.447Z,24.39
2018-07-04T11:41:55.029Z,24.29
2018-07-04T11:44:33.745Z,24.28
2018-07-04T11:46:59.864Z,24.31
2018-07-04T11:49:25.941Z,24.41
2018-07-04T11:51:52.273Z,24.47
2018-07-04T11:54:18.340Z,24.54
2018-07-04T11:56:44.713Z,24.58
2018-07-04T11:59:10.797Z,24.67
2018-07-04T12:01:36.946Z,24.81
2018-07-04T12:04:15.353Z,24.87
2018-07-04T12:06:53.929Z,25.00
2018-07-04T12:09:20.014Z,25.10
2018-07-04T12:11:46.093Z,25.13
2018-07-04T12:14:12.150Z,25.07
2018-07-04T12:16:38.404Z,25.21
2018-07-04T12:19:04.469Z,25.25
2018-07-04T12:21:30.557Z,25.27
2018-07-04T12:23:56.637Z,25.22
2018-07-04T12:26:22.721Z,25.31
2018-07-04T12:28:48.777Z,25.39
2018-07-04T12:31:14.846Z,25.44
2018-07-04T12:33:40.901Z,25.38
2018-07-04T12:36:07.050Z,25.40
2018-07-04T12:38:33.226Z,25.45
2018-07-04T12:40:59.280Z,25.53
2018-07-04T12:43:25.391Z,25.47
2018-07-04T12:45:51.433Z,25.50
2018-07-04T12:48:17.534Z,25.43
2018-07-04T12:50:43.601Z,25.47
2018-07-04T12:53:09.678Z,25.55
2018-07-04T12:55:48.294Z,25.64
2018-07-04T12:58:26.746Z,25.76
2018-07-04T13:01:05.487Z,25.89
2018-07-04T13:03:43.977Z,25.94
2018-07-04T13:06:22.584Z,25.94
2018-07-04T13:09:01.289Z,26.01
2018-07-04T13:11:39.957Z,26.04
2018-07-04T13:14:18.449Z,26.06
2018-07-04T13:16:56.845Z,26.05
2018-07-04T13:19:35.586Z,26.13
2018-07-04T13:22:14.102Z,26.28
2018-07-04T13:24:52.621Z,26.33
2018-07-04T13:27:31.145Z,26.26
2018-07-04T13:30:09.741Z,26.34
2018-07-04T13:32:48.401Z,26.42
2018-07-04T13:35:26.816Z,26.48
2018-07-04T13:38:05.383Z,26.46
2018-07-04T13:40:43.941Z,26.45
2018-07-04T13:43:22.422Z,26.53
2018-07-04T13:46:01.022Z,26.63
2018-07-04T13:48:39.557Z,26.68
2018-07-04T13:51:18.157Z,26.61
2018-07-04T13:53:56.909Z,26.53
2018-07-04T13:56:35.597Z,26.59
2018-07-04T13:59:14.197Z,26.70
2018-07-04T14:01:52.677Z,26.62
2018-07-04T14:04:31.219Z,26.58
2018-07-04T14:07:09.532Z,26.70
2018-07-04T14:09:48.109Z,26.85
2018-07-04T14:12:26.670Z,26.94
2018-07-04T14:15:05.150Z,26.94
2018-07-04T14:17:43.941Z,26.87
2018-07-04T14:20:22.986Z,26.82
2018-07-04T14:23:01.708Z,26.69
2018-07-04T14:25:40.321Z,26.57
2018-07-04T14:28:18.918Z,26.58
2018-07-04T14:30:57.421Z,26.67
2018-07-04T14:33:35.981Z,26.66
2018-07-04T14:36:15.090Z,26.66
2018-07-04T14:38:54.642Z,26.56
2018-07-04T14:41:33.121Z,26.51
2018-07-04T14:44:11.888Z,26.51
2018-07-04T14:46:50.482Z,26.45
2018-07-04T14:49:29.261Z,26.50
2018-07-04T14:52:08.164Z,26.55
2018-07-04T14:54:46.817Z,26.60
2018-07-04T14:57:25.306Z,26.62
2018-07-04T15:00:03.873Z,26.55
2018-07-04T15:02:42.601Z,26.54
2018-07-04T15:05:21.457Z,26.52
2018-07-04T15:08:00.050Z,26.56
2018-07-04T15:10:38.618Z,26.52
2018-07-04T15:13:17.341Z,26.48
2018-07-04T15:15:55.800Z,26.48
2018-07-04T15:18:34.341Z,26.47
2018-07-04T15:21:12.782Z,26.48
2018-07-04T15:23:51.646Z,26.47
2018-07-04T15:26:30.189Z,26.45
2018-07-04T15:29:08.924Z,26.43
2018-07-04T15:31:47.385Z,26.35
2018-07-04T15:34:25.897Z,26.36
2018-07-04T15:37:04.301Z,26.34
2018-07-04T15:39:42.985Z,26.23
2018-07-04T15:42:21.602Z,26.14
2018-07-04T15:45:00.158Z,26.12
2018-07-04T15:47:38.703Z,26.13
2018-07-04T15:50:17.238Z,26.14
2018-07-04T15:52:55.661Z,26.16
2018-07-04T15:55:34.349Z,26.14
2018-07-04T15:58:12.945Z,26.17
2018-07-04T16:00:51.601Z,26.17
2018-07-04T16:03:30.265Z,26.17
2018-07-04T16:06:08.794Z,26.19
2018-07-04T16:08:47.477Z,26.20
2018-07-04T16:11:25.973Z,26.23
2018-07-04T16:14:04.633Z,26.21
2018-07-04T16:16:43.460Z,26.20
2018-07-04T16:19:22.150Z,26.20
2018-07-04T16:22:00.669Z,26.19
2018-07-04T16:24:39.338Z,26.19
2018-07-04T16:27:17.853Z,26.21
2018-07-04T16:29:56.314Z,26.12
2018-07-04T16:32:34.743Z,26.09
2018-07-04T16:35:13.146Z,26.05
2018-07-04T16:37:51.696Z,26.09
2018-07-04T16:40:30.309Z,26.09
2018-07-04T16:43:08.924Z,26.04
2018-07-04T16:45:47.549Z,26.03
2018-07-04T16:48:26.060Z,26.01
2018-07-04T16:51:04.689Z,25.99
2018-07-04T16:53:43.253Z,25.96
2018-07-04T16:56:21.709Z,25.89
2018-07-04T16:59:00.334Z,25.88
2018-07-04T17:01:38.926Z,25.93
2018-07-04T17:04:17.549Z,25.96
2018-07-04T17:06:55.987Z,25.96
2018-07-04T17:09:34.441Z,25.89
2018-07-04T17:12:12.989Z,25.82
2018-07-04T17:14:51.664Z,25.83
2018-07-04T17:17:30.175Z,25.84
2018-07-04T17:20:08.832Z,25.86
2018-07-04T17:22:47.453Z,25.87
2018-07-04T17:25:25.967Z,25.86
2018-07-04T17:28:04.470Z,25.91
2018-07-04T17:30:43.053Z,25.92
2018-07-04T17:33:22.074Z,25.96
2018-07-04T17:36:00.550Z,25.98
2018-07-04T17:38:39.020Z,25.91
2018-07-04T17:41:17.594Z,25.98
2018-07-04T17:43:56.032Z,26.01
2018-07-04T17:46:34.677Z,26.03
2018-07-04T17:49:13.306Z,26.06
2018-07-04T17:51:51.953Z,26.05
2018-07-04T17:54:30.514Z,26.06
2018-07-04T17:57:09.092Z,26.13
2018-07-04T17:59:47.768Z,26.13
2018-07-04T18:02:26.221Z,26.04
2018-07-04T18:05:04.733Z,26.03
2018-07-04T18:07:43.286Z,26.16
2018-07-04T18:10:21.696Z,26.19
2018-07-04T18:13:00.381Z,26.11
2018-07-04T18:15:39.125Z,26.16
2018-07-04T18:18:18.713Z,26.08
2018-07-04T18:20:59.716Z,26.10
2018-07-04T18:23:38.294Z,26.08
2018-07-04T18:26:16.929Z,26.08
2018-07-04T18:28:55.317Z,26.15
2018-07-04T18:31:33.946Z,26.18
2018-07-04T18:34:12.496Z,25.96
2018-07-04T18:36:51.056Z,25.82
2018-07-04T18:39:29.424Z,25.70
2018-07-04T18:42:08.105Z,25.51
2018-07-04T18:44:46.558Z,25.25
2018-07-04T18:47:25.214Z,25.14
2018-07-04T18:50:03.597Z,25.04
2018-07-04T18:52:42.090Z,24.91
2018-07-04T18:55:20.680Z,24.81
2018-07-04T18:57:59.523Z,24.68
2018-07-04T19:00:37.966Z,24.57
2018-07-04T19:03:16.394Z,24.41
2018-07-04T19:05:54.864Z,24.30
2018-07-04T19:08:33.473Z,24.19
2018-07-04T19:11:11.891Z,24.09
2018-07-04T19:13:50.917Z,24.02
2018-07-04T19:16:29.316Z,23.92
2018-07-04T19:19:07.945Z,23.81
2018-07-04T19:21:46.438Z,23.71
2018-07-04T19:24:25.301Z,23.57
2018-07-04T19:27:03.781Z,23.46
2018-07-04T19:29:42.149Z,23.33
2018-07-04T19:32:20.935Z,23.23
2018-07-04T19:34:59.504Z,23.13
2018-07-04T19:37:38.044Z,23.01
2018-07-04T19:40:16.641Z,22.91
2018-07-04T19:42:55.164Z,22.82
2018-07-04T19:45:33.633Z,22.71
2018-07-04T19:48:12.265Z,22.59
2018-07-04T19:50:50.789Z,22.49
2018-07-04T19:53:29.628Z,22.39
2018-07-04T19:56:07.990Z,22.31
2018-07-04T19:58:46.590Z,22.19
2018-07-04T20:01:24.929Z,22.09
2018-07-04T20:04:03.421Z,22.00
2018-07-04T20:06:42.074Z,21.95
2018-07-04T20:09:20.631Z,21.86
2018-07-04T20:11:59.306Z,21.81
2018-07-04T20:14:37.825Z,21.66
2018-07-04T20:17:16.443Z,21.65
2018-07-04T20:19:54.909Z,21.60
2018-07-04T20:22:33.590Z,21.54
2018-07-04T20:25:12.074Z,21.47
2018-07-04T20:27:50.753Z,21.38
2018-07-04T20:30:29.310Z,21.31
2018-07-04T20:33:07.886Z,21.24
2018-07-04T20:35:46.365Z,21.18
2018-07-04T20:38:24.858Z,21.11
2018-07-04T20:41:03.366Z,21.04
2018-07-04T20:43:42.005Z,20.96
2018-07-04T20:46:20.430Z,20.92
2018-07-04T20:48:59.032Z,20.82
2018-07-04T20:51:37.733Z,20.77
2018-07-04T20:54:16.416Z,20.73
2018-07-04T20:56:54.961Z,20.66
2018-07-04T20:59:33.516Z,20.59
2018-07-04T21:02:12.225Z,20.53
2018-07-04T21:04:50.889Z,20.47
2018-07-04T21:07:29.498Z,20.43
2018-07-04T21:10:08.021Z,20.35
2018-07-04T21:12:46.674Z,20.32
2018-07-04T21:15:25.229Z,20.28
2018-07-04T21:18:03.869Z,20.23
2018-07-04T21:20:42.221Z,20.19
2018-07-04T21:23:21.418Z,20.14
2018-07-04T21:25:59.861Z,20.09
2018-07-04T21:28:38.473Z,20.05
2018-07-04T21:31:16.917Z,20.00
2018-07-04T21:33:55.466Z,19.96
2018-07-04T21:36:34.197Z,19.92
2018-07-04T21:39:12.711Z,19.87
2018-07-04T21:41:51.317Z,19.82
2018-07-04T21:44:29.769Z,19.76
2018-07-04T21:47:08.454Z,19.72
2018-07-04T21:49:46.967Z,19.68
2018-07-04T21:52:25.314Z,19.65
2018-07-04T21:55:04.022Z,19.60
2018-07-04T21:57:42.601Z,19.58
2018-07-04T22:00:22.777Z,19.53
2018-07-04T22:03:01.357Z,19.48
2018-07-04T22:05:40.042Z,19.42
2018-07-04T22:08:19.166Z,19.36
2018-07-04T22:10:57.647Z,19.29
2018-07-04T22:13:36.168Z,19.24
2018-07-04T22:16:14.632Z,19.19
2018-07-04T22:18:53.412Z,19.17
2018-07-04T22:21:31.884Z,19.15
2018-07-04T22:24:10.505Z,19.09
2018-07-04T22:26:48.889Z,19.05
2018-07-04T22:29:27.369Z,19.01
2018-07-04T22:32:05.934Z,18.97
2018-07-04T22:34:44.564Z,18.92
2018-07-04T22:37:23.122Z,18.89
2018-07-04T22:40:01.725Z,18.84
2018-07-04T22:42:40.302Z,18.80
2018-07-04T22:45:18.889Z,18.72
2018-07-04T22:47:57.410Z,18.68
2018-07-04T22:50:36.091Z,18.62
2018-07-04T22:53:15.081Z,18.51
2018-07-04T22:55:53.553Z,18.45
2018-07-04T22:58:32.102Z,18.38
2018-07-04T23:01:10.518Z,18.35
2018-07-04T23:03:49.066Z,18.33
2018-07-04T23:06:27.546Z,18.33
2018-07-04T23:09:06.116Z,18.30
2018-07-04T23:11:44.766Z,18.27
2018-07-04T23:14:23.266Z,18.25
2018-07-04T23:17:01.917Z,18.22
2018-07-04T23:19:40.478Z,18.19
2018-07-04T23:22:19.078Z,18.16
2018-07-04T23:24:57.605Z,18.14
2018-07-04T23:27:36.053Z,18.12
2018-07-04T23:30:14.592Z,18.09
2018-07-04T23:32:53.192Z,18.01
2018-07-04T23:35:31.830Z,17.98
2018-07-04T23:38:10.481Z,17.96
2018-07-04T23:40:49.091Z,17.92
2018-07-04T23:43:27.596Z,17.88
2018-07-04T23:46:06.205Z,17.85
2018-07-04T23:48:44.725Z,17.82
2018-07-04T23:51:23.387Z,17.78
2018-07-04T23:54:01.958Z,17.75
2018-07-04T23:56:40.489Z,17.71
2018-07-04T23:59:19.073Z,17.69
